sensor_id;sensor_type;location;lat;lon;timestamp;temperature;humidity
20977;DHT22;10647;51.016;3.720;2022-12-13T00:00:22;-0.90;99.90
20977;DHT22;10647;51.016;3.720;2022-12-13T00:02:49;-0.90;99.90
20977;DHT22;10647;51.016;3.720;2022-12-13T00:05:17;-0.90;99.90
20977;DHT22;10647;51.016;3.720;2022-12-13T00:07:44;-0.90;99.90
20977;DHT22;10647;51.016;3.720;2022-12-13T00:10:12;-0.90;99.90
20977;DHT22;10647;51.016;3.720;2022-12-13T00:12:41;-0.90;99.90
20977;DHT22;10647;51.016;3.720;2022-12-13T00:15:09;-0.90;99.90
20977;DHT22;10647;51.016;3.720;2022-12-13T00:17:37;-0.90;99.90
20977;DHT22;10647;51.016;3.720;2022-12-13T00:20:05;-0.90;99.90
20977;DHT22;10647;51.016;3.720;2022-12-13T00:22:32;-0.90;99.90
20977;DHT22;10647;51.016;3.720;2022-12-13T00:25:00;-0.90;99.90
20977;DHT22;10647;51.016;3.720;2022-12-13T00:27:27;-0.90;99.90
20977;DHT22;10647;51.016;3.720;2022-12-13T00:29:55;-0.90;99.90
20977;DHT22;10647;51.016;3.720;2022-12-13T00:32:22;-0.80;99.90
20977;DHT22;10647;51.016;3.720;2022-12-13T00:34:50;-0.90;99.90
20977;DHT22;10647;51.016;3.720;2022-12-13T00:37:17;-0.90;99.90
20977;DHT22;10647;51.016;3.720;2022-12-13T00:39:45;-0.90;99.90
20977;DHT22;10647;51.016;3.720;2022-12-13T00:42:12;-0.80;99.90
20977;DHT22;10647;51.016;3.720;2022-12-13T00:44:40;-0.90;99.90
20977;DHT22;10647;51.016;3.720;2022-12-13T00:47:07;-0.80;99.90
20977;DHT22;10647;51.016;3.720;2022-12-13T00:49:35;-0.80;99.90
20977;DHT22;10647;51.016;3.720;2022-12-13T00:52:02;-0.90;99.90
20977;DHT22;10647;51.016;3.720;2022-12-13T00:54:30;-0.90;99.90
20977;DHT22;10647;51.016;3.720;2022-12-13T00:56:57;-0.90;99.90
20977;DHT22;10647;51.016;3.720;2022-12-13T00:59:26;-0.90;99.90
20977;DHT22;10647;51.016;3.720;2022-12-13T01:01:53;-0.90;99.90
20977;DHT22;10647;51.016;3.720;2022-12-13T01:04:21;-0.90;99.90
20977;DHT22;10647;51.016;3.720;2022-12-13T01:06:48;-0.90;99.90
20977;DHT22;10647;51.016;3.720;2022-12-13T01:09:19;-1.20;99.90
20977;DHT22;10647;51.016;3.720;2022-12-13T01:14:46;-1.00;99.90
20977;DHT22;10647;51.016;3.720;2022-12-13T01:17:13;-1.00;99.90
20977;DHT22;10647;51.016;3.720;2022-12-13T01:19:41;-1.00;99.90
20977;DHT22;10647;51.016;3.720;2022-12-13T01:24:48;-1.00;99.90
20977;DHT22;10647;51.016;3.720;2022-12-13T01:27:15;-1.00;99.90
20977;DHT22;10647;51.016;3.720;2022-12-13T01:29:43;-1.00;99.90
20977;DHT22;10647;51.016;3.720;2022-12-13T01:32:13;-1.10;99.90
20977;DHT22;10647;51.016;3.720;2022-12-13T01:34:40;-1.00;99.90
20977;DHT22;10647;51.016;3.720;2022-12-13T01:37:08;-1.00;99.90
20977;DHT22;10647;51.016;3.720;2022-12-13T01:39:41;-1.10;99.90
20977;DHT22;10647;51.016;3.720;2022-12-13T01:42:11;-1.10;99.90
20977;DHT22;10647;51.016;3.720;2022-12-13T01:47:48;-1.10;99.90
20977;DHT22;10647;51.016;3.720;2022-12-13T01:50:22;-1.10;99.90
20977;DHT22;10647;51.016;3.720;2022-12-13T01:52:51;-1.20;99.90
20977;DHT22;10647;51.016;3.720;2022-12-13T01:55:22;-1.20;99.90
20977;DHT22;10647;51.016;3.720;2022-12-13T01:57:50;-1.20;99.90
20977;DHT22;10647;51.016;3.720;2022-12-13T02:00:19;-1.20;99.90
20977;DHT22;10647;51.016;3.720;2022-12-13T02:02:48;-1.20;99.90
20977;DHT22;10647;51.016;3.720;2022-12-13T02:05:20;-1.10;99.90
20977;DHT22;10647;51.016;3.720;2022-12-13T02:07:47;-1.10;99.90
20977;DHT22;10647;51.016;3.720;2022-12-13T02:10:17;-1.20;99.90
20977;DHT22;10647;51.016;3.720;2022-12-13T02:12:44;-1.20;99.90
20977;DHT22;10647;51.016;3.720;2022-12-13T02:15:14;-1.20;99.90
20977;DHT22;10647;51.016;3.720;2022-12-13T02:24:14;-1.20;99.90
20977;DHT22;10647;51.016;3.720;2022-12-13T02:32:27;-1.20;99.90
20977;DHT22;10647;51.016;3.720;2022-12-13T02:38:15;-1.30;99.90
20977;DHT22;10647;51.016;3.720;2022-12-13T02:41:21;-1.30;99.90
20977;DHT22;10647;51.016;3.720;2022-12-13T02:44:07;-1.30;99.90
20977;DHT22;10647;51.016;3.720;2022-12-13T02:46:38;-1.40;99.90
20977;DHT22;10647;51.016;3.720;2022-12-13T02:49:06;-1.40;99.90
20977;DHT22;10647;51.016;3.720;2022-12-13T02:51:37;-1.40;99.90
20977;DHT22;10647;51.016;3.720;2022-12-13T02:54:05;-1.40;99.90
20977;DHT22;10647;51.016;3.720;2022-12-13T02:56:33;-1.40;99.90
20977;DHT22;10647;51.016;3.720;2022-12-13T03:05:10;-1.40;99.90
20977;DHT22;10647;51.016;3.720;2022-12-13T03:10:51;-1.40;99.90
20977;DHT22;10647;51.016;3.720;2022-12-13T03:13:30;-1.40;99.90
20977;DHT22;10647;51.016;3.720;2022-12-13T03:16:18;-1.50;99.90
20977;DHT22;10647;51.016;3.720;2022-12-13T03:19:08;-1.40;99.90
20977;DHT22;10647;51.016;3.720;2022-12-13T03:21:40;-1.50;99.90
20977;DHT22;10647;51.016;3.720;2022-12-13T03:24:08;-1.50;99.90
20977;DHT22;10647;51.016;3.720;2022-12-13T03:26:37;-1.60;99.90
20977;DHT22;10647;51.016;3.720;2022-12-13T03:29:05;-1.50;99.90
20977;DHT22;10647;51.016;3.720;2022-12-13T03:31:33;-1.60;99.90
20977;DHT22;10647;51.016;3.720;2022-12-13T03:34:01;-1.60;99.90
20977;DHT22;10647;51.016;3.720;2022-12-13T03:36:53;-1.60;99.90
20977;DHT22;10647;51.016;3.720;2022-12-13T03:39:45;-1.60;99.90
20977;DHT22;10647;51.016;3.720;2022-12-13T03:42:12;-1.60;99.90
20977;DHT22;10647;51.016;3.720;2022-12-13T03:44:39;-1.60;99.90
20977;DHT22;10647;51.016;3.720;2022-12-13T03:47:07;-1.60;99.90
20977;DHT22;10647;51.016;3.720;2022-12-13T03:49:34;-1.60;99.90
20977;DHT22;10647;51.016;3.720;2022-12-13T03:52:02;-1.60;99.90
20977;DHT22;10647;51.016;3.720;2022-12-13T03:54:30;-1.60;99.90
20977;DHT22;10647;51.016;3.720;2022-12-13T03:57:17;-1.60;99.90
20977;DHT22;10647;51.016;3.720;2022-12-13T03:59:53;-1.60;99.90
20977;DHT22;10647;51.016;3.720;2022-12-13T04:02:21;-1.60;99.90
20977;DHT22;10647;51.016;3.720;2022-12-13T04:04:48;-1.70;99.90
20977;DHT22;10647;51.016;3.720;2022-12-13T04:07:16;-1.70;99.90
20977;DHT22;10647;51.016;3.720;2022-12-13T04:09:43;-1.70;99.90
20977;DHT22;10647;51.016;3.720;2022-12-13T04:12:11;-1.60;99.90
20977;DHT22;10647;51.016;3.720;2022-12-13T04:14:56;-1.60;99.90
20977;DHT22;10647;51.016;3.720;2022-12-13T04:17:24;-1.60;99.90
20977;DHT22;10647;51.016;3.720;2022-12-13T04:19:51;-1.70;99.90
20977;DHT22;10647;51.016;3.720;2022-12-13T04:22:19;-1.70;99.90
20977;DHT22;10647;51.016;3.720;2022-12-13T04:24:46;-1.70;99.90
20977;DHT22;10647;51.016;3.720;2022-12-13T04:27:14;-1.70;99.90
20977;DHT22;10647;51.016;3.720;2022-12-13T04:29:41;-1.70;99.90
20977;DHT22;10647;51.016;3.720;2022-12-13T04:32:09;-1.70;99.90
20977;DHT22;10647;51.016;3.720;2022-12-13T04:34:36;-1.70;99.90
20977;DHT22;10647;51.016;3.720;2022-12-13T04:37:04;-1.70;99.90
20977;DHT22;10647;51.016;3.720;2022-12-13T04:39:32;-1.60;99.90
20977;DHT22;10647;51.016;3.720;2022-12-13T04:41:59;-1.70;99.90
20977;DHT22;10647;51.016;3.720;2022-12-13T04:44:27;-1.70;99.90
20977;DHT22;10647;51.016;3.720;2022-12-13T04:46:54;-1.70;99.90
20977;DHT22;10647;51.016;3.720;2022-12-13T04:49:22;-1.70;99.90
20977;DHT22;10647;51.016;3.720;2022-12-13T04:51:49;-1.70;99.90
20977;DHT22;10647;51.016;3.720;2022-12-13T04:54:17;-1.70;99.90
20977;DHT22;10647;51.016;3.720;2022-12-13T04:56:44;-1.70;99.90
20977;DHT22;10647;51.016;3.720;2022-12-13T04:59:12;-1.70;99.90
20977;DHT22;10647;51.016;3.720;2022-12-13T05:01:40;-1.70;99.90
20977;DHT22;10647;51.016;3.720;2022-12-13T05:04:07;-1.70;99.90
20977;DHT22;10647;51.016;3.720;2022-12-13T05:06:35;-1.70;99.90
20977;DHT22;10647;51.016;3.720;2022-12-13T05:09:03;-1.70;99.90
20977;DHT22;10647;51.016;3.720;2022-12-13T05:11:30;-1.70;99.90
20977;DHT22;10647;51.016;3.720;2022-12-13T05:13:58;-1.80;99.90
20977;DHT22;10647;51.016;3.720;2022-12-13T05:16:26;-1.80;99.90
20977;DHT22;10647;51.016;3.720;2022-12-13T05:18:53;-1.80;99.90
20977;DHT22;10647;51.016;3.720;2022-12-13T05:21:21;-1.80;99.90
20977;DHT22;10647;51.016;3.720;2022-12-13T05:23:48;-1.80;99.90
20977;DHT22;10647;51.016;3.720;2022-12-13T05:26:16;-1.80;99.90
20977;DHT22;10647;51.016;3.720;2022-12-13T05:28:43;-1.90;99.90
20977;DHT22;10647;51.016;3.720;2022-12-13T05:31:12;-1.80;99.90
20977;DHT22;10647;51.016;3.720;2022-12-13T05:33:39;-1.90;99.90
20977;DHT22;10647;51.016;3.720;2022-12-13T05:36:07;-1.80;99.90
20977;DHT22;10647;51.016;3.720;2022-12-13T05:38:34;-1.90;99.90
20977;DHT22;10647;51.016;3.720;2022-12-13T05:41:02;-1.90;99.90
20977;DHT22;10647;51.016;3.720;2022-12-13T05:43:33;-1.90;99.90
20977;DHT22;10647;51.016;3.720;2022-12-13T05:46:00;-1.60;99.90
20977;DHT22;10647;51.016;3.720;2022-12-13T05:48:27;-1.90;99.90
20977;DHT22;10647;51.016;3.720;2022-12-13T05:50:55;-1.90;99.90
20977;DHT22;10647;51.016;3.720;2022-12-13T05:53:22;-1.90;99.90
20977;DHT22;10647;51.016;3.720;2022-12-13T05:55:50;-1.90;99.90
20977;DHT22;10647;51.016;3.720;2022-12-13T05:58:17;-1.80;99.90
20977;DHT22;10647;51.016;3.720;2022-12-13T06:00:45;-1.90;99.90
20977;DHT22;10647;51.016;3.720;2022-12-13T06:03:13;-1.90;99.90
20977;DHT22;10647;51.016;3.720;2022-12-13T06:05:41;-1.80;99.90
20977;DHT22;10647;51.016;3.720;2022-12-13T06:08:09;-1.90;99.90
20977;DHT22;10647;51.016;3.720;2022-12-13T06:10:37;-1.90;99.90
20977;DHT22;10647;51.016;3.720;2022-12-13T06:13:06;-1.90;99.90
20977;DHT22;10647;51.016;3.720;2022-12-13T06:15:33;-1.90;99.90
20977;DHT22;10647;51.016;3.720;2022-12-13T06:18:01;-1.90;99.90
20977;DHT22;10647;51.016;3.720;2022-12-13T06:20:28;-1.90;99.90
20977;DHT22;10647;51.016;3.720;2022-12-13T06:22:57;-1.90;99.90
20977;DHT22;10647;51.016;3.720;2022-12-13T06:25:25;-1.90;99.90
20977;DHT22;10647;51.016;3.720;2022-12-13T06:27:52;-1.90;99.90
20977;DHT22;10647;51.016;3.720;2022-12-13T06:30:20;-1.90;99.90
20977;DHT22;10647;51.016;3.720;2022-12-13T06:32:48;-1.90;99.90
20977;DHT22;10647;51.016;3.720;2022-12-13T06:35:16;-1.90;99.90
20977;DHT22;10647;51.016;3.720;2022-12-13T06:37:43;-1.90;99.90
20977;DHT22;10647;51.016;3.720;2022-12-13T06:40:11;-1.90;99.90
20977;DHT22;10647;51.016;3.720;2022-12-13T06:42:39;-1.90;99.90
20977;DHT22;10647;51.016;3.720;2022-12-13T06:45:06;-1.90;99.90
20977;DHT22;10647;51.016;3.720;2022-12-13T06:47:34;-1.90;99.90
20977;DHT22;10647;51.016;3.720;2022-12-13T06:50:02;-1.90;99.90
20977;DHT22;10647;51.016;3.720;2022-12-13T06:52:29;-1.90;99.90
20977;DHT22;10647;51.016;3.720;2022-12-13T06:54:57;-1.90;99.90
20977;DHT22;10647;51.016;3.720;2022-12-13T06:57:24;-1.90;99.90
20977;DHT22;10647;51.016;3.720;2022-12-13T06:59:52;-1.90;99.90
20977;DHT22;10647;51.016;3.720;2022-12-13T07:02:19;-1.90;99.90
20977;DHT22;10647;51.016;3.720;2022-12-13T07:04:47;-1.90;99.90
20977;DHT22;10647;51.016;3.720;2022-12-13T07:07:14;-1.90;99.90
20977;DHT22;10647;51.016;3.720;2022-12-13T07:09:42;-1.90;99.90
20977;DHT22;10647;51.016;3.720;2022-12-13T07:12:10;-1.90;99.90
20977;DHT22;10647;51.016;3.720;2022-12-13T07:14:37;-1.80;99.90
20977;DHT22;10647;51.016;3.720;2022-12-13T07:17:05;-1.80;99.90
20977;DHT22;10647;51.016;3.720;2022-12-13T07:19:32;-1.80;99.90
20977;DHT22;10647;51.016;3.720;2022-12-13T07:22:00;-1.80;99.90
20977;DHT22;10647;51.016;3.720;2022-12-13T07:24:27;-1.80;99.90
20977;DHT22;10647;51.016;3.720;2022-12-13T07:26:55;-1.80;99.90
20977;DHT22;10647;51.016;3.720;2022-12-13T07:29:22;-1.80;99.90
20977;DHT22;10647;51.016;3.720;2022-12-13T07:31:50;-1.70;99.90
20977;DHT22;10647;51.016;3.720;2022-12-13T07:34:17;-1.70;99.90
20977;DHT22;10647;51.016;3.720;2022-12-13T07:36:45;-1.70;99.90
20977;DHT22;10647;51.016;3.720;2022-12-13T07:39:12;-1.70;99.90
20977;DHT22;10647;51.016;3.720;2022-12-13T07:41:40;-1.70;99.90
20977;DHT22;10647;51.016;3.720;2022-12-13T07:44:07;-1.60;99.90
20977;DHT22;10647;51.016;3.720;2022-12-13T07:46:35;-1.60;99.90
20977;DHT22;10647;51.016;3.720;2022-12-13T07:49:03;-1.60;99.90
20977;DHT22;10647;51.016;3.720;2022-12-13T07:51:33;-1.60;99.90
20977;DHT22;10647;51.016;3.720;2022-12-13T07:54:01;-1.60;99.90
20977;DHT22;10647;51.016;3.720;2022-12-13T07:56:28;-1.50;99.90
20977;DHT22;10647;51.016;3.720;2022-12-13T07:58:56;-1.50;99.90
20977;DHT22;10647;51.016;3.720;2022-12-13T08:01:23;-1.40;99.90
20977;DHT22;10647;51.016;3.720;2022-12-13T08:03:51;-1.40;99.90
20977;DHT22;10647;51.016;3.720;2022-12-13T08:06:18;-1.30;99.90
20977;DHT22;10647;51.016;3.720;2022-12-13T08:08:46;-1.30;99.90
20977;DHT22;10647;51.016;3.720;2022-12-13T08:11:15;-1.20;99.90
20977;DHT22;10647;51.016;3.720;2022-12-13T08:13:43;-1.10;99.90
20977;DHT22;10647;51.016;3.720;2022-12-13T08:16:12;-1.20;99.90
20977;DHT22;10647;51.016;3.720;2022-12-13T08:18:42;-1.00;99.90
20977;DHT22;10647;51.016;3.720;2022-12-13T08:21:10;-0.90;99.90
20977;DHT22;10647;51.016;3.720;2022-12-13T08:23:37;-0.90;99.90
20977;DHT22;10647;51.016;3.720;2022-12-13T08:26:05;-0.90;99.90
20977;DHT22;10647;51.016;3.720;2022-12-13T08:28:33;-0.80;99.90
20977;DHT22;10647;51.016;3.720;2022-12-13T08:31:08;-0.80;99.90
20977;DHT22;10647;51.016;3.720;2022-12-13T08:33:55;-0.80;99.90
20977;DHT22;10647;51.016;3.720;2022-12-13T08:36:23;-0.70;99.90
20977;DHT22;10647;51.016;3.720;2022-12-13T08:38:57;-0.70;99.90
20977;DHT22;10647;51.016;3.720;2022-12-13T08:41:21;-0.60;99.90
20977;DHT22;10647;51.016;3.720;2022-12-13T08:46:37;-0.50;99.90
20977;DHT22;10647;51.016;3.720;2022-12-13T08:49:05;-0.30;99.90
20977;DHT22;10647;51.016;3.720;2022-12-13T08:51:33;-0.10;99.90
20977;DHT22;10647;51.016;3.720;2022-12-13T08:54:01;0.00;99.90
20977;DHT22;10647;51.016;3.720;2022-12-13T08:56:29;0.10;99.90
20977;DHT22;10647;51.016;3.720;2022-12-13T08:58:56;0.10;99.90
20977;DHT22;10647;51.016;3.720;2022-12-13T09:01:24;0.10;99.90
20977;DHT22;10647;51.016;3.720;2022-12-13T09:03:51;0.00;99.90
20977;DHT22;10647;51.016;3.720;2022-12-13T09:06:19;0.10;99.90
20977;DHT22;10647;51.016;3.720;2022-12-13T09:08:51;0.20;99.90
20977;DHT22;10647;51.016;3.720;2022-12-13T09:11:20;0.40;99.90
20977;DHT22;10647;51.016;3.720;2022-12-13T09:13:48;0.50;99.90
20977;DHT22;10647;51.016;3.720;2022-12-13T09:16:18;0.60;99.90
20977;DHT22;10647;51.016;3.720;2022-12-13T09:18:48;0.70;99.90
20977;DHT22;10647;51.016;3.720;2022-12-13T09:21:16;0.90;99.90
20977;DHT22;10647;51.016;3.720;2022-12-13T09:23:44;0.90;99.90
20977;DHT22;10647;51.016;3.720;2022-12-13T09:26:14;0.90;99.90
20977;DHT22;10647;51.016;3.720;2022-12-13T09:28:43;1.00;99.90
20977;DHT22;10647;51.016;3.720;2022-12-13T09:31:13;1.10;99.90
20977;DHT22;10647;51.016;3.720;2022-12-13T09:36:51;1.30;99.90
20977;DHT22;10647;51.016;3.720;2022-12-13T09:39:19;1.30;99.90
20977;DHT22;10647;51.016;3.720;2022-12-13T09:41:57;1.30;99.90
20977;DHT22;10647;51.016;3.720;2022-12-13T09:44:36;1.30;99.90
20977;DHT22;10647;51.016;3.720;2022-12-13T09:47:08;1.30;99.90
20977;DHT22;10647;51.016;3.720;2022-12-13T09:49:43;1.40;99.90
20977;DHT22;10647;51.016;3.720;2022-12-13T09:52:33;1.50;99.90
20977;DHT22;10647;51.016;3.720;2022-12-13T09:54:59;1.60;99.90
20977;DHT22;10647;51.016;3.720;2022-12-13T10:00:17;1.80;99.90
20977;DHT22;10647;51.016;3.720;2022-12-13T10:02:50;1.90;99.90
20977;DHT22;10647;51.016;3.720;2022-12-13T10:08:23;1.90;99.90
20977;DHT22;10647;51.016;3.720;2022-12-13T10:10:51;2.00;99.90
20977;DHT22;10647;51.016;3.720;2022-12-13T10:13:35;2.00;99.90
20977;DHT22;10647;51.016;3.720;2022-12-13T10:16:01;2.00;99.90
20977;DHT22;10647;51.016;3.720;2022-12-13T10:21:40;2.00;99.90
20977;DHT22;10647;51.016;3.720;2022-12-13T10:27:26;2.20;99.90
20977;DHT22;10647;51.016;3.720;2022-12-13T10:30:17;2.20;99.90
20977;DHT22;10647;51.016;3.720;2022-12-13T10:35:26;2.30;99.90
20977;DHT22;10647;51.016;3.720;2022-12-13T10:37:56;2.30;99.90
20977;DHT22;10647;51.016;3.720;2022-12-13T10:40:34;2.40;99.90
20977;DHT22;10647;51.016;3.720;2022-12-13T10:43:13;2.50;99.90
20977;DHT22;10647;51.016;3.720;2022-12-13T10:46:01;2.60;99.90
20977;DHT22;10647;51.016;3.720;2022-12-13T10:48:51;2.70;99.90
20977;DHT22;10647;51.016;3.720;2022-12-13T10:51:21;2.80;99.90
20977;DHT22;10647;51.016;3.720;2022-12-13T10:54:13;2.90;99.90
20977;DHT22;10647;51.016;3.720;2022-12-13T10:56:47;2.90;99.90
20977;DHT22;10647;51.016;3.720;2022-12-13T11:01:46;3.10;99.90
20977;DHT22;10647;51.016;3.720;2022-12-13T11:09:48;3.40;99.90
20977;DHT22;10647;51.016;3.720;2022-12-13T11:12:21;3.50;99.90
20977;DHT22;10647;51.016;3.720;2022-12-13T11:17:44;3.70;99.90
20977;DHT22;10647;51.016;3.720;2022-12-13T11:20:16;3.80;99.90
20977;DHT22;10647;51.016;3.720;2022-12-13T11:22:44;3.90;99.90
20977;DHT22;10647;51.016;3.720;2022-12-13T11:36:51;4.20;99.90
20977;DHT22;10647;51.016;3.720;2022-12-13T11:42:36;4.40;99.90
20977;DHT22;10647;51.016;3.720;2022-12-13T11:45:33;4.60;99.90
20977;DHT22;10647;51.016;3.720;2022-12-13T11:48:19;4.70;99.90
20977;DHT22;10647;51.016;3.720;2022-12-13T11:50:50;4.80;99.90
20977;DHT22;10647;51.016;3.720;2022-12-13T11:56:14;5.00;99.90
20977;DHT22;10647;51.016;3.720;2022-12-13T11:59:02;5.00;99.90
20977;DHT22;10647;51.016;3.720;2022-12-13T12:04:41;5.10;99.90
20977;DHT22;10647;51.016;3.720;2022-12-13T12:07:28;5.20;99.90
20977;DHT22;10647;51.016;3.720;2022-12-13T12:12:50;5.20;99.90
20977;DHT22;10647;51.016;3.720;2022-12-13T12:15:28;5.20;99.90
20977;DHT22;10647;51.016;3.720;2022-12-13T12:18:00;5.30;99.90
20977;DHT22;10647;51.016;3.720;2022-12-13T12:20:50;5.30;99.90
20977;DHT22;10647;51.016;3.720;2022-12-13T12:26:31;5.40;99.90
20977;DHT22;10647;51.016;3.720;2022-12-13T12:32:19;5.40;99.90
20977;DHT22;10647;51.016;3.720;2022-12-13T12:43:32;5.40;99.90
20977;DHT22;10647;51.016;3.720;2022-12-13T12:45:46;5.50;99.90
20977;DHT22;10647;51.016;3.720;2022-12-13T12:51:16;5.50;99.90
20977;DHT22;10647;51.016;3.720;2022-12-13T12:53:56;5.50;99.90
20977;DHT22;10647;51.016;3.720;2022-12-13T12:56:41;5.60;99.90
20977;DHT22;10647;51.016;3.720;2022-12-13T12:59:21;5.70;99.90
20977;DHT22;10647;51.016;3.720;2022-12-13T13:04:45;5.80;99.90
20977;DHT22;10647;51.016;3.720;2022-12-13T13:07:21;5.80;99.90
20977;DHT22;10647;51.016;3.720;2022-12-13T13:09:50;5.80;99.90
20977;DHT22;10647;51.016;3.720;2022-12-13T13:12:23;5.80;99.90
20977;DHT22;10647;51.016;3.720;2022-12-13T13:14:51;5.80;99.90
20977;DHT22;10647;51.016;3.720;2022-12-13T13:22:46;5.50;99.90
20977;DHT22;10647;51.016;3.720;2022-12-13T13:25:33;5.40;99.90
20977;DHT22;10647;51.016;3.720;2022-12-13T13:28:13;5.30;99.90
20977;DHT22;10647;51.016;3.720;2022-12-13T13:30:36;5.40;99.90
20977;DHT22;10647;51.016;3.720;2022-12-13T13:33:08;5.50;99.90
20977;DHT22;10647;51.016;3.720;2022-12-13T13:35:45;5.50;99.90
20977;DHT22;10647;51.016;3.720;2022-12-13T13:44:52;5.40;99.90
20977;DHT22;10647;51.016;3.720;2022-12-13T13:50:20;5.30;99.90
20977;DHT22;10647;51.016;3.720;2022-12-13T14:01:58;5.10;99.90
20977;DHT22;10647;51.016;3.720;2022-12-13T14:10:24;5.00;99.90
20977;DHT22;10647;51.016;3.720;2022-12-13T14:27:46;4.60;99.90
20977;DHT22;10647;51.016;3.720;2022-12-13T14:30:32;4.50;99.90
20977;DHT22;10647;51.016;3.720;2022-12-13T14:33:02;4.40;99.90
20977;DHT22;10647;51.016;3.720;2022-12-13T14:35:31;4.30;99.90
20977;DHT22;10647;51.016;3.720;2022-12-13T14:38:05;4.30;99.90
20977;DHT22;10647;51.016;3.720;2022-12-13T14:40:39;4.30;99.90
20977;DHT22;10647;51.016;3.720;2022-12-13T14:43:19;4.30;99.90
20977;DHT22;10647;51.016;3.720;2022-12-13T14:45:36;4.20;99.90
20977;DHT22;10647;51.016;3.720;2022-12-13T14:48:14;4.20;99.90
20977;DHT22;10647;51.016;3.720;2022-12-13T14:50:48;4.20;99.90
20977;DHT22;10647;51.016;3.720;2022-12-13T14:53:29;4.10;99.90
20977;DHT22;10647;51.016;3.720;2022-12-13T14:56:14;4.10;99.90
20977;DHT22;10647;51.016;3.720;2022-12-13T14:58:54;4.00;99.90
20977;DHT22;10647;51.016;3.720;2022-12-13T15:01:34;4.00;99.90
20977;DHT22;10647;51.016;3.720;2022-12-13T15:04:29;3.90;99.90
20977;DHT22;10647;51.016;3.720;2022-12-13T15:10:19;3.80;99.90
20977;DHT22;10647;51.016;3.720;2022-12-13T15:12:52;3.70;99.90
20977;DHT22;10647;51.016;3.720;2022-12-13T15:18:19;3.50;99.90
20977;DHT22;10647;51.016;3.720;2022-12-13T15:20:49;3.40;99.90
20977;DHT22;10647;51.016;3.720;2022-12-13T15:23:36;3.40;99.90
20977;DHT22;10647;51.016;3.720;2022-12-13T15:26:13;3.30;99.90
20977;DHT22;10647;51.016;3.720;2022-12-13T15:28:43;3.20;99.90
20977;DHT22;10647;51.016;3.720;2022-12-13T15:31:12;3.10;99.90
20977;DHT22;10647;51.016;3.720;2022-12-13T15:33:40;3.10;99.90
20977;DHT22;10647;51.016;3.720;2022-12-13T15:36:23;3.00;99.90
20977;DHT22;10647;51.016;3.720;2022-12-13T15:41:47;3.00;99.90
20977;DHT22;10647;51.016;3.720;2022-12-13T15:44:30;2.90;99.90
20977;DHT22;10647;51.016;3.720;2022-12-13T15:47:04;2.90;99.90
20977;DHT22;10647;51.016;3.720;2022-12-13T15:50:01;2.90;99.90
20977;DHT22;10647;51.016;3.720;2022-12-13T15:55:26;2.80;99.90
20977;DHT22;10647;51.016;3.720;2022-12-13T15:57:52;2.80;99.90
20977;DHT22;10647;51.016;3.720;2022-12-13T16:00:29;2.80;99.90
20977;DHT22;10647;51.016;3.720;2022-12-13T16:03:06;2.70;99.90
20977;DHT22;10647;51.016;3.720;2022-12-13T16:05:47;2.70;99.90
20977;DHT22;10647;51.016;3.720;2022-12-13T16:11:06;2.60;99.90
20977;DHT22;10647;51.016;3.720;2022-12-13T16:13:36;2.70;99.90
20977;DHT22;10647;51.016;3.720;2022-12-13T16:16:24;2.60;99.90
20977;DHT22;10647;51.016;3.720;2022-12-13T16:18:58;2.60;99.90
20977;DHT22;10647;51.016;3.720;2022-12-13T16:21:29;2.60;99.90
20977;DHT22;10647;51.016;3.720;2022-12-13T16:23:57;2.50;99.90
20977;DHT22;10647;51.016;3.720;2022-12-13T16:26:27;2.50;99.90
20977;DHT22;10647;51.016;3.720;2022-12-13T16:28:55;2.50;99.90
20977;DHT22;10647;51.016;3.720;2022-12-13T16:31:28;2.60;99.90
20977;DHT22;10647;51.016;3.720;2022-12-13T16:33:58;2.60;99.90
20977;DHT22;10647;51.016;3.720;2022-12-13T16:36:31;2.50;99.90
20977;DHT22;10647;51.016;3.720;2022-12-13T16:38:59;2.60;99.90
20977;DHT22;10647;51.016;3.720;2022-12-13T16:41:26;2.60;99.90
20977;DHT22;10647;51.016;3.720;2022-12-13T16:43:56;2.60;99.90
20977;DHT22;10647;51.016;3.720;2022-12-13T16:46:24;2.60;99.90
20977;DHT22;10647;51.016;3.720;2022-12-13T16:48:52;2.50;99.90
20977;DHT22;10647;51.016;3.720;2022-12-13T16:51:20;2.50;99.90
20977;DHT22;10647;51.016;3.720;2022-12-13T16:53:48;2.50;99.90
20977;DHT22;10647;51.016;3.720;2022-12-13T16:56:15;2.50;99.90
20977;DHT22;10647;51.016;3.720;2022-12-13T16:58:44;2.50;99.90
20977;DHT22;10647;51.016;3.720;2022-12-13T17:01:13;2.50;99.90
20977;DHT22;10647;51.016;3.720;2022-12-13T17:03:41;2.50;99.90
20977;DHT22;10647;51.016;3.720;2022-12-13T17:06:09;2.50;99.90
20977;DHT22;10647;51.016;3.720;2022-12-13T17:08:38;2.60;99.90
20977;DHT22;10647;51.016;3.720;2022-12-13T17:11:06;2.50;99.90
20977;DHT22;10647;51.016;3.720;2022-12-13T17:13:35;2.50;99.90
20977;DHT22;10647;51.016;3.720;2022-12-13T17:16:04;2.50;99.90
20977;DHT22;10647;51.016;3.720;2022-12-13T17:18:31;2.50;99.90
20977;DHT22;10647;51.016;3.720;2022-12-13T17:21:06;2.40;99.90
20977;DHT22;10647;51.016;3.720;2022-12-13T17:23:34;2.40;99.90
20977;DHT22;10647;51.016;3.720;2022-12-13T17:26:06;2.40;99.90
20977;DHT22;10647;51.016;3.720;2022-12-13T17:28:34;2.40;99.90
20977;DHT22;10647;51.016;3.720;2022-12-13T17:31:10;2.40;99.90
20977;DHT22;10647;51.016;3.720;2022-12-13T17:33:39;2.30;99.90
20977;DHT22;10647;51.016;3.720;2022-12-13T17:36:08;2.30;99.90
20977;DHT22;10647;51.016;3.720;2022-12-13T17:38:40;2.20;99.90
20977;DHT22;10647;51.016;3.720;2022-12-13T17:41:06;2.20;99.90
20977;DHT22;10647;51.016;3.720;2022-12-13T17:43:33;2.30;99.90
20977;DHT22;10647;51.016;3.720;2022-12-13T17:46:03;2.20;99.90
20977;DHT22;10647;51.016;3.720;2022-12-13T17:48:31;2.20;99.90
20977;DHT22;10647;51.016;3.720;2022-12-13T17:50:59;2.20;99.90
20977;DHT22;10647;51.016;3.720;2022-12-13T17:53:27;2.20;99.90
20977;DHT22;10647;51.016;3.720;2022-12-13T17:55:55;2.10;99.90
20977;DHT22;10647;51.016;3.720;2022-12-13T17:58:25;2.10;99.90
20977;DHT22;10647;51.016;3.720;2022-12-13T18:00:53;2.10;99.90
20977;DHT22;10647;51.016;3.720;2022-12-13T18:03:21;2.10;99.90
20977;DHT22;10647;51.016;3.720;2022-12-13T18:06:04;1.80;99.90
20977;DHT22;10647;51.016;3.720;2022-12-13T18:08:52;1.90;99.90
20977;DHT22;10647;51.016;3.720;2022-12-13T18:11:21;1.90;99.90
20977;DHT22;10647;51.016;3.720;2022-12-13T18:13:49;1.90;99.90
20977;DHT22;10647;51.016;3.720;2022-12-13T18:16:17;1.90;99.90
20977;DHT22;10647;51.016;3.720;2022-12-13T18:18:45;1.90;99.90
20977;DHT22;10647;51.016;3.720;2022-12-13T18:24:02;1.80;99.90
20977;DHT22;10647;51.016;3.720;2022-12-13T18:26:29;1.80;99.90
20977;DHT22;10647;51.016;3.720;2022-12-13T18:28:57;1.70;99.90
20977;DHT22;10647;51.016;3.720;2022-12-13T18:31:24;1.70;99.90
20977;DHT22;10647;51.016;3.720;2022-12-13T18:33:53;1.70;99.90
20977;DHT22;10647;51.016;3.720;2022-12-13T18:36:22;1.70;99.90
20977;DHT22;10647;51.016;3.720;2022-12-13T18:38:50;1.60;99.90
20977;DHT22;10647;51.016;3.720;2022-12-13T18:41:25;1.60;99.90
20977;DHT22;10647;51.016;3.720;2022-12-13T18:43:53;1.60;99.90
20977;DHT22;10647;51.016;3.720;2022-12-13T18:46:21;1.50;99.90
20977;DHT22;10647;51.016;3.720;2022-12-13T18:48:49;1.50;99.90
20977;DHT22;10647;51.016;3.720;2022-12-13T18:51:16;1.50;99.90